Time;durP1;ratioP1;P1;durP2;ratioP2;P2;SDS_P1;SDS_P2;PMS_P1;PMS_P2;Temp;Humidity;BMP_temperature;BMP_pressure;BME280_temperature;BME280_humidity;BME280_pressure;Samples;Min_cycle;Max_cycle;Signal;HPM_P1;HPM_P2
2021/04/06 00:00:38;;;;;;;8.23;3.40;;;;;;;-143.98;100.00;68091.63;5096741;28;20047;-84
2021/04/06 00:03:11;;;;;;;8.65;3.33;;;;;;;-143.98;100.00;68091.63;5086919;28;20048;-85
2021/04/06 00:05:39;;;;;;;6.65;3.65;;;;;;;-143.98;100.00;68091.63;5096112;28;20048;-85
2021/04/06 00:08:06;;;;;;;8.68;3.50;;;;;;;-143.98;100.00;68091.63;5096112;28;20174;-84
2021/04/06 00:10:46;;;;;;;5.40;3.28;;;;;;;-143.98;100.00;68091.63;5096820;28;20055;-84
2021/04/06 00:13:15;;;;;;;8.32;4.20;;;;;;;-143.98;100.00;68091.63;5096790;28;20056;-85
2021/04/06 00:15:41;;;;;;;7.47;3.50;;;;;;;-143.98;100.00;68091.63;5097769;28;20040;-85
2021/04/06 00:18:13;;;;;;;7.70;4.20;;;;;;;-143.98;100.00;68091.63;5096942;28;20035;-84
2021/04/06 00:20:40;;;;;;;8.07;4.25;;;;;;;-143.98;100.00;68091.63;5098165;28;20050;-84
2021/04/06 00:23:08;;;;;;;8.38;4.25;;;;;;;-143.98;100.00;68091.63;5096209;28;20056;-84
2021/04/06 00:25:38;;;;;;;8.05;4.20;;;;;;;-143.98;100.00;68091.63;5084253;28;20246;-84
2021/04/06 00:28:11;;;;;;;8.73;4.38;;;;;;;-143.98;100.00;68091.63;5082452;28;20048;-85
2021/04/06 00:30:37;;;;;;;6.85;3.92;;;;;;;-143.98;100.00;68091.63;5081221;28;20055;-84
2021/04/06 00:33:17;;;;;;;5.65;3.72;;;;;;;-143.98;100.00;68091.63;5077931;28;20056;-84
2021/04/06 00:35:52;;;;;;;6.30;3.97;;;;;;;-143.98;100.00;68091.63;5097119;28;20048;-84
2021/04/06 00:38:19;;;;;;;7.75;3.90;;;;;;;-143.98;100.00;68091.63;5078412;28;20102;-85
2021/04/06 00:40:48;;;;;;;6.43;3.90;;;;;;;-143.98;100.00;68091.63;5095177;28;20044;-84
2021/04/06 00:43:17;;;;;;;11.40;4.35;;;;;;;-143.98;100.00;68091.63;5079537;28;20394;-84
2021/04/06 00:45:45;;;;;;;8.38;4.25;;;;;;;-143.98;100.00;68091.63;5090929;28;20473;-84
2021/04/06 00:48:19;;;;;;;7.68;3.40;;;;;;;-143.98;100.00;68091.63;5104430;28;20096;-85
2021/04/06 00:51:20;;;;;;;7.25;4.07;;;;;;;-143.98;100.00;68091.63;5094251;28;20412;-85
2021/04/06 00:53:55;;;;;;;8.63;3.75;;;;;;;-143.98;100.00;68091.63;5094239;28;20056;-84
2021/04/06 00:56:23;;;;;;;9.82;3.38;;;;;;;-143.98;100.00;68091.63;5077222;28;20114;-84
2021/04/06 00:58:51;;;;;;;7.22;4.28;;;;;;;-143.98;100.00;68091.63;5077723;28;20070;-84
2021/04/06 01:01:40;;;;;;;35.05;5.97;;;;;;;-143.98;100.00;68091.63;5077464;28;20052;-84
2021/04/06 01:04:18;;;;;;;24.38;4.15;;;;;;;-143.98;100.00;68091.63;5077669;28;20432;-84
2021/04/06 01:07:18;;;;;;;9.65;4.10;;;;;;;-143.98;100.00;68091.63;5092921;28;20429;-85
2021/04/06 01:09:53;;;;;;;9.02;3.50;;;;;;;-143.98;100.00;68091.63;5093843;28;20135;-84
2021/04/06 01:12:21;;;;;;;21.87;5.23;;;;;;;-143.98;100.00;68091.63;5094187;28;20048;-84
2021/04/06 01:14:49;;;;;;;13.30;4.30;;;;;;;-143.98;100.00;68091.63;5093852;28;20048;-84
2021/04/06 01:17:39;;;;;;;12.88;5.20;;;;;;;-143.98;100.00;68091.63;5077689;28;20328;-84
2021/04/06 01:20:13;;;;;;;9.80;4.07;;;;;;;-143.98;100.00;68091.63;5093529;28;20105;-84
2021/04/06 01:22:40;;;;;;;14.88;4.68;;;;;;;-143.98;100.00;68091.63;5092572;28;20055;-84
2021/04/06 01:25:18;;;;;;;10.35;3.78;;;;;;;-143.98;100.00;68091.63;5094827;28;20048;-85
2021/04/06 01:27:47;;;;;;;9.23;3.83;;;;;;;-143.98;100.00;68091.63;5105781;28;20070;-84
2021/04/06 01:30:15;;;;;;;12.93;4.15;;;;;;;-143.98;100.00;68091.63;5105333;28;20052;-84
2021/04/06 01:32:42;;;;;;;12.40;4.38;;;;;;;-143.98;100.00;68091.63;5099527;28;20059;-84
2021/04/06 01:35:10;;;;;;;18.98;4.20;;;;;;;-143.98;100.00;68091.63;5058399;28;20121;-84
2021/04/06 01:37:36;;;;;;;31.83;4.68;;;;;;;-143.98;100.00;68091.63;5058869;28;20049;-84
2021/04/06 01:40:05;;;;;;;7.28;3.35;;;;;;;-143.98;100.00;68091.63;5059545;28;20071;-84
2021/04/06 01:42:34;;;;;;;14.32;3.63;;;;;;;-143.98;100.00;68091.63;5057792;28;20052;-84
2021/04/06 01:45:09;;;;;;;8.82;3.65;;;;;;;-143.98;100.00;68091.63;5058701;28;20052;-85
2021/04/06 01:47:39;;;;;;;12.50;4.50;;;;;;;-143.98;100.00;68091.63;5057840;28;20059;-85
2021/04/06 01:50:08;;;;;;;9.90;3.97;;;;;;;-143.98;100.00;68091.63;5054754;28;20060;-85
2021/04/06 01:52:35;;;;;;;8.73;3.65;;;;;;;-143.98;100.00;68091.63;5055197;28;20420;-85
2021/04/06 01:55:11;;;;;;;9.90;3.53;;;;;;;-143.98;100.00;68091.63;5039022;28;20144;-85
2021/04/06 01:57:41;;;;;;;7.38;3.90;;;;;;;-143.98;100.00;68091.63;5055893;28;20045;-85
2021/04/06 02:00:21;;;;;;;12.20;4.05;;;;;;;-143.98;100.00;68091.63;5052809;28;20096;-85
2021/04/06 02:02:47;;;;;;;9.98;2.95;;;;;;;-143.98;100.00;68091.63;5054327;28;20102;-84
2021/04/06 02:05:14;;;;;;;7.45;3.83;;;;;;;-143.98;100.00;68091.63;5052994;28;20044;-84
2021/04/06 02:07:43;;;;;;;9.02;3.60;;;;;;;-143.98;100.00;68091.63;5056108;28;20082;-84
2021/04/06 02:10:13;;;;;;;9.68;3.60;;;;;;;-143.98;100.00;68091.63;5060987;28;20049;-85
2021/04/06 02:12:45;;;;;;;11.90;3.65;;;;;;;-143.98;100.00;68091.63;5057605;28;20059;-85
2021/04/06 02:15:13;;;;;;;13.02;3.72;;;;;;;-143.98;100.00;68091.63;5057722;28;20088;-85
2021/04/06 02:17:50;;;;;;;8.55;3.97;;;;;;;-143.98;100.00;68091.63;5057060;28;20141;-85
2021/04/06 02:20:24;;;;;;;9.32;3.85;;;;;;;-143.98;100.00;68091.63;5055705;28;20063;-85
2021/04/06 02:23:01;;;;;;;8.02;3.65;;;;;;;-143.98;100.00;68091.63;5056361;28;20080;-85
2021/04/06 02:25:31;;;;;;;7.68;3.78;;;;;;;-143.98;100.00;68091.63;5056521;28;20127;-84
2021/04/06 02:27:57;;;;;;;9.15;3.92;;;;;;;-143.98;100.00;68091.63;5059482;28;20146;-84
2021/04/06 02:30:31;;;;;;;18.15;5.32;;;;;;;-143.98;100.00;68091.63;5058302;28;20334;-85
2021/04/06 02:33:02;;;;;;;12.27;4.93;;;;;;;-143.98;100.00;68091.63;5073207;28;20076;-84
2021/04/06 02:36:06;;;;;;;14.68;4.90;;;;;;;-143.98;100.00;68091.63;5061666;28;20332;-84
2021/04/06 02:38:43;;;;;;;16.23;4.72;;;;;;;-143.98;100.00;68091.63;5075969;28;20063;-83
2021/04/06 02:41:15;;;;;;;16.60;4.57;;;;;;;-143.98;100.00;68091.63;5060122;28;20395;-83
2021/04/06 02:43:51;;;;;;;23.08;4.57;;;;;;;-143.98;100.00;68091.63;5077137;28;20243;-83
2021/04/06 02:46:29;;;;;;;11.60;4.90;;;;;;;-143.98;100.00;68091.63;5077652;28;20052;-83
2021/04/06 02:48:58;;;;;;;10.88;5.05;;;;;;;-143.98;100.00;68091.63;5080379;28;20048;-83
2021/04/06 02:51:25;;;;;;;10.85;3.92;;;;;;;-143.98;100.00;68091.63;5081462;28;20052;-83
2021/04/06 02:53:52;;;;;;;12.40;3.42;;;;;;;-143.98;100.00;68091.63;5065815;28;20108;-83
2021/04/06 02:56:37;;;;;;;16.58;4.20;;;;;;;-143.98;100.00;68091.63;5065003;28;20052;-83
2021/04/06 02:59:17;;;;;;;14.50;4.10;;;;;;;-143.98;100.00;68091.63;5080804;28;20358;-83
2021/04/06 03:01:48;;;;;;;15.98;4.57;;;;;;;-143.98;100.00;68091.63;5079950;28;20052;-83
2021/04/06 03:04:39;;;;;;;7.80;3.40;;;;;;;-143.98;100.00;68091.63;5081422;28;20139;-83
2021/04/06 03:07:43;;;;;;;14.68;3.75;;;;;;;-143.98;100.00;68091.63;5079627;28;20057;-83
2021/04/06 03:10:20;;;;;;;16.98;3.97;;;;;;;-143.98;100.00;68091.63;5064717;28;20063;-83
2021/04/06 03:12:50;;;;;;;21.17;3.17;;;;;;;-143.98;100.00;68091.63;5080457;28;20056;-83
2021/04/06 03:15:24;;;;;;;10.68;2.83;;;;;;;-143.98;100.00;68091.63;5080535;28;20056;-84
2021/04/06 03:17:56;;;;;;;9.90;3.10;;;;;;;-143.98;100.00;68091.63;5069425;28;20048;-84
2021/04/06 03:20:24;;;;;;;15.15;3.30;;;;;;;-143.98;100.00;68091.63;5095178;28;20052;-84
2021/04/06 03:22:54;;;;;;;19.17;2.80;;;;;;;-143.98;100.00;68091.63;5094623;28;20041;-84
2021/04/06 03:25:22;;;;;;;10.50;3.22;;;;;;;-143.98;100.00;68091.63;5078589;28;20064;-86
2021/04/06 03:27:50;;;;;;;9.38;2.45;;;;;;;-143.98;100.00;68091.63;5096477;28;20040;-84
2021/04/06 03:30:32;;;;;;;15.63;4.13;;;;;;;-143.98;100.00;68091.63;5095533;28;20047;-85
2021/04/06 03:33:12;;;;;;;13.60;2.65;;;;;;;-143.98;100.00;68091.63;5091933;28;20449;-85
2021/04/06 03:36:38;;;;;;;23.17;3.33;;;;;;;-143.98;100.00;68091.63;5058998;28;20057;-84
2021/04/06 03:39:06;;;;;;;10.70;2.60;;;;;;;-143.98;100.00;68091.63;5070095;28;20117;-85
2021/04/06 03:41:34;;;;;;;14.70;2.95;;;;;;;-143.98;100.00;68091.63;5057038;28;20041;-85
2021/04/06 03:44:06;;;;;;;17.75;3.20;;;;;;;-143.98;100.00;68091.63;5076637;28;20116;-85
2021/04/06 03:46:41;;;;;;;6.10;2.00;;;;;;;-143.98;100.00;68091.63;5059165;28;20049;-85
2021/04/06 03:49:15;;;;;;;19.08;3.20;;;;;;;-143.98;100.00;68091.63;5069537;28;20048;-87
2021/04/06 03:51:59;;;;;;;16.17;3.03;;;;;;;-143.98;100.00;68091.63;5049713;28;20382;-86
2021/04/06 03:54:46;;;;;;;49.03;5.13;;;;;;;-143.98;100.00;68091.63;5065257;28;20045;-85
2021/04/06 03:57:23;;;;;;;13.45;2.85;;;;;;;-143.98;100.00;68091.63;5045440;28;20045;-85
2021/04/06 03:59:50;;;;;;;13.00;2.75;;;;;;;-143.98;100.00;68091.63;5061098;28;20053;-85
2021/04/06 04:02:19;;;;;;;24.00;3.58;;;;;;;-143.98;100.00;68091.63;5061331;28;20428;-85
2021/04/06 04:04:45;;;;;;;12.25;2.65;;;;;;;-143.98;100.00;68091.63;5044349;28;20427;-85
2021/04/06 04:07:14;;;;;;;14.57;3.28;;;;;;;-143.98;100.00;68091.63;5061139;28;20084;-85
2021/04/06 04:09:44;;;;;;;13.05;2.90;;;;;;;-143.98;100.00;68091.63;5060295;28;20049;-85
2021/04/06 04:12:11;;;;;;;103.80;6.95;;;;;;;-143.98;100.00;68091.63;5060867;28;20049;-85
2021/04/06 04:14:37;;;;;;;16.95;2.53;;;;;;;-143.98;100.00;68091.63;5061318;28;20048;-85
2021/04/06 04:17:04;;;;;;;30.77;2.72;;;;;;;-143.98;100.00;68091.63;5062687;28;20116;-86
2021/04/06 04:19:34;;;;;;;18.13;2.25;;;;;;;-143.98;100.00;68091.63;5061460;28;20059;-85
2021/04/06 04:22:00;;;;;;;125.70;6.97;;;;;;;-143.98;100.00;68091.63;5060084;28;20053;-86
2021/04/06 04:24:32;;;;;;;102.70;5.60;;;;;;;-143.98;100.00;68091.63;5052399;28;20542;-86
2021/04/06 04:26:59;;;;;;;22.85;2.70;;;;;;;-143.98;100.00;68091.63;5097309;28;20108;-86
2021/04/06 04:29:26;;;;;;;18.73;2.90;;;;;;;-143.98;100.00;68091.63;5080195;28;20404;-85
2021/04/06 04:31:52;;;;;;;59.42;5.28;;;;;;;-143.98;100.00;68091.63;5080520;28;20116;-86
2021/04/06 04:34:18;;;;;;;18.88;2.90;;;;;;;-143.98;100.00;68091.63;5083006;28;20112;-86
2021/04/06 04:36:45;;;;;;;15.18;2.78;;;;;;;-143.98;100.00;68091.63;5083883;28;20112;-84
2021/04/06 04:39:11;;;;;;;17.17;2.67;;;;;;;-143.98;100.00;68091.63;5085525;28;20483;-85
2021/04/06 04:41:41;;;;;;;11.90;2.65;;;;;;;-143.98;100.00;68091.63;5086403;28;20060;-85
2021/04/06 04:44:07;;;;;;;16.90;2.75;;;;;;;-143.98;100.00;68091.63;5087639;28;20052;-86
2021/04/06 04:46:36;;;;;;;23.13;3.42;;;;;;;-143.98;100.00;68091.63;5087308;28;20078;-86
2021/04/06 04:49:02;;;;;;;20.52;3.00;;;;;;;-143.98;100.00;68091.63;5086641;28;20064;-84
2021/04/06 04:51:29;;;;;;;19.77;2.25;;;;;;;-143.98;100.00;68091.63;5087714;28;20063;-86
2021/04/06 04:53:55;;;;;;;16.67;3.42;;;;;;;-143.98;100.00;68091.63;5085059;28;20316;-86
2021/04/06 04:56:22;;;;;;;189.25;13.82;;;;;;;-143.98;100.00;68091.63;5098335;28;20193;-86
2021/04/06 04:58:48;;;;;;;98.97;6.35;;;;;;;-143.98;100.00;68091.63;5098610;28;20125;-84
2021/04/06 05:01:18;;;;;;;20.70;3.42;;;;;;;-143.98;100.00;68091.63;5082220;28;20098;-84
2021/04/06 05:03:47;;;;;;;27.58;4.03;;;;;;;-143.98;100.00;68091.63;5100580;28;20052;-85
2021/04/06 05:06:16;;;;;;;14.98;3.10;;;;;;;-143.98;100.00;68091.63;5083419;28;20116;-85
2021/04/06 05:08:42;;;;;;;45.60;4.63;;;;;;;-143.98;100.00;68091.63;5082861;28;20113;-86
2021/04/06 05:11:18;;;;;;;17.13;2.47;;;;;;;-143.98;100.00;68091.63;5072183;28;20052;-85
2021/04/06 05:13:45;;;;;;;14.40;2.45;;;;;;;-143.98;100.00;68091.63;5066186;28;20051;-86
2021/04/06 05:16:19;;;;;;;27.25;2.75;;;;;;;-143.98;100.00;68091.63;5069142;28;20048;-86
2021/04/06 05:18:51;;;;;;;12.73;2.63;;;;;;;-143.98;100.00;68091.63;5084865;28;20051;-85
2021/04/06 05:21:18;;;;;;;16.50;2.85;;;;;;;-143.98;100.00;68091.63;5064592;28;20401;-85
2021/04/06 05:23:44;;;;;;;11.90;2.75;;;;;;;-143.98;100.00;68091.63;5078823;28;20062;-84
2021/04/06 05:26:44;;;;;;;10.55;2.28;;;;;;;-143.98;100.00;68091.63;5083210;28;20047;-85
2021/04/06 05:29:35;;;;;;;14.38;2.53;;;;;;;-143.98;100.00;68091.63;5075969;28;20052;-83
2021/04/06 05:32:15;;;;;;;15.70;2.50;;;;;;;-143.98;100.00;68091.63;5097681;27;20047;-84
2021/04/06 05:35:18;;;;;;;12.02;2.80;;;;;;;-143.98;100.00;68091.63;5072603;28;20045;-84
2021/04/06 05:37:45;;;;;;;15.32;2.08;;;;;;;-143.98;100.00;68091.63;5073316;28;20049;-85
2021/04/06 05:40:12;;;;;;;7.65;2.50;;;;;;;-143.98;100.00;68091.63;5077308;28;20040;-85
2021/04/06 05:42:42;;;;;;;9.30;1.67;;;;;;;-143.98;100.00;68091.63;5061175;28;20057;-86
2021/04/06 05:45:09;;;;;;;15.07;2.78;;;;;;;-143.98;100.00;68091.63;5098754;28;20501;-86
2021/04/06 05:47:49;;;;;;;9.82;2.13;;;;;;;-143.98;100.00;68091.63;5097227;28;20125;-86
2021/04/06 05:50:15;;;;;;;17.40;2.83;;;;;;;-143.98;100.00;68091.63;5062695;28;20147;-87
2021/04/06 05:52:43;;;;;;;7.55;1.95;;;;;;;-143.98;100.00;68091.63;5079532;28;20063;-86
2021/04/06 05:55:12;;;;;;;10.32;2.45;;;;;;;-143.98;100.00;68091.63;5063069;28;20068;-88
2021/04/06 05:57:39;;;;;;;17.00;2.20;;;;;;;-143.98;100.00;68091.63;5063473;28;20189;-87
2021/04/06 06:00:08;;;;;;;13.23;2.60;;;;;;;-143.98;100.00;68091.63;5063260;28;20062;-87
2021/04/06 06:02:51;;;;;;;20.98;2.95;;;;;;;-143.98;100.00;68091.63;5081495;28;20087;-87
2021/04/06 06:05:18;;;;;;;11.07;2.17;;;;;;;-143.98;100.00;68091.63;5080615;28;20048;-87
2021/04/06 06:07:44;;;;;;;9.43;2.30;;;;;;;-143.98;100.00;68091.63;5062147;28;20048;-87
2021/04/06 06:10:37;;;;;;;13.88;2.25;;;;;;;-143.98;100.00;68091.63;5077567;28;20048;-86
2021/04/06 06:13:19;;;;;;;12.18;2.20;;;;;;;-143.98;100.00;68091.63;5079593;28;20136;-86
2021/04/06 06:16:13;;;;;;;9.75;2.25;;;;;;;-143.98;100.00;68091.63;5085535;28;20256;-86
2021/04/06 06:19:04;;;;;;;10.73;2.30;;;;;;;-143.98;100.00;68091.63;5084853;28;20171;-87
2021/04/06 06:21:49;;;;;;;17.27;2.83;;;;;;;-143.98;100.00;68091.63;5085589;28;20040;-86
2021/04/06 06:24:32;;;;;;;13.85;2.78;;;;;;;-143.98;100.00;68091.63;5062615;28;20447;-87
2021/04/06 06:26:59;;;;;;;11.68;2.38;;;;;;;-143.98;100.00;68091.63;5061733;28;20044;-86
2021/04/06 06:29:41;;;;;;;10.75;2.50;;;;;;;-143.98;100.00;68091.63;5080333;28;20056;-86
2021/04/06 06:32:18;;;;;;;14.73;2.90;;;;;;;-143.98;100.00;68091.63;5073694;28;20032;-86
2021/04/06 06:34:45;;;;;;;15.18;2.92;;;;;;;-143.98;100.00;68091.63;5111756;28;20066;-87
2021/04/06 06:37:16;;;;;;;17.17;3.30;;;;;;;-143.98;100.00;68091.63;5095076;28;20148;-87
2021/04/06 06:39:52;;;;;;;14.35;2.92;;;;;;;-143.98;100.00;68091.63;5095343;28;20426;-87
2021/04/06 06:42:21;;;;;;;15.65;2.63;;;;;;;-143.98;100.00;68091.63;5125853;28;20111;-86
2021/04/06 06:44:50;;;;;;;19.85;2.80;;;;;;;-143.98;100.00;68091.63;5111478;28;20047;-87
2021/04/06 06:47:23;;;;;;;24.30;3.22;;;;;;;-143.98;100.00;68091.63;5093359;28;20043;-86
2021/04/06 06:49:53;;;;;;;18.80;3.80;;;;;;;-143.98;100.00;68091.63;5101013;28;20043;-86
2021/04/06 06:52:23;;;;;;;20.05;2.92;;;;;;;-143.98;100.00;68091.63;5104946;28;20076;-86
2021/04/06 06:55:02;;;;;;;20.27;3.28;;;;;;;-143.98;100.00;68091.63;5121193;28;20071;-86
2021/04/06 06:57:38;;;;;;;17.83;3.58;;;;;;;-143.98;100.00;68091.63;5102958;28;20058;-86
2021/04/06 07:00:14;;;;;;;19.00;2.95;;;;;;;-143.98;100.00;68091.63;5098828;28;20048;-87
2021/04/06 07:06:25;;;;;;;29.40;3.58;;;;;;;-143.98;100.00;68091.63;5114195;28;20055;-86
2021/04/06 07:09:47;;;;;;;14.45;3.47;;;;;;;-143.98;100.00;68091.63;5114579;28;20220;-87
2021/04/06 07:12:34;;;;;;;24.73;4.03;;;;;;;-143.98;100.00;68091.63;5097604;28;20040;-85
2021/04/06 07:15:05;;;;;;;15.15;3.67;;;;;;;-143.98;100.00;68091.63;5065895;28;20061;-87
2021/04/06 07:17:43;;;;;;;16.70;3.30;;;;;;;-143.98;100.00;68091.63;5064738;28;20056;-88
2021/04/06 07:20:21;;;;;;;18.60;2.97;;;;;;;-143.98;100.00;68091.63;5082305;28;20052;-87
2021/04/06 07:22:52;;;;;;;13.80;2.47;;;;;;;-143.98;100.00;68091.63;5089185;28;20223;-87
2021/04/06 07:25:24;;;;;;;12.68;2.50;;;;;;;-143.98;100.00;68091.63;5062038;28;20386;-87
2021/04/06 07:27:53;;;;;;;8.48;2.55;;;;;;;-143.98;100.00;68091.63;5059414;28;20048;-87
2021/04/06 07:30:23;;;;;;;20.42;3.13;;;;;;;-143.98;100.00;68091.63;5060428;28;20053;-87
2021/04/06 07:32:51;;;;;;;12.60;2.05;;;;;;;-143.98;100.00;68091.63;5055476;28;20072;-86
2021/04/06 07:35:18;;;;;;;10.40;2.08;;;;;;;-143.98;100.00;68091.63;5041561;28;20053;-87
2021/04/06 07:37:56;;;;;;;21.85;3.03;;;;;;;-143.98;100.00;68091.63;5056530;28;20065;-85
2021/04/06 07:40:23;;;;;;;12.23;2.22;;;;;;;-143.98;100.00;68091.63;5058193;28;20136;-85
2021/04/06 07:42:57;;;;;;;67.43;6.30;;;;;;;-143.98;100.00;68091.63;5043466;28;20057;-86
2021/04/06 07:45:23;;;;;;;13.90;3.30;;;;;;;-143.98;100.00;68091.63;5077808;28;20056;-86
2021/04/06 07:47:56;;;;;;;7.43;2.05;;;;;;;-143.98;100.00;68091.63;5077531;28;20155;-86
2021/04/06 07:50:48;;;;;;;17.70;2.53;;;;;;;-143.98;100.00;68091.63;5056444;28;20521;-85
2021/04/06 07:53:29;;;;;;;7.38;2.08;;;;;;;-143.98;100.00;68091.63;5043798;28;20677;-86
2021/04/06 07:55:59;;;;;;;16.48;4.78;;;;;;;-143.98;100.00;68091.63;5055017;28;20049;-86
2021/04/06 07:58:49;;;;;;;15.65;2.70;;;;;;;-143.98;100.00;68091.63;5070938;28;20404;-87
2021/04/06 08:01:27;;;;;;;13.70;2.92;;;;;;;-143.98;100.00;68091.63;5041539;28;20316;-86
2021/04/06 08:03:54;;;;;;;13.35;2.15;;;;;;;-143.98;100.00;68091.63;5058688;28;20088;-89
2021/04/06 08:06:29;;;;;;;12.98;2.85;;;;;;;-143.98;100.00;68091.63;5056890;28;20235;-84
2021/04/06 08:08:56;;;;;;;15.10;2.83;;;;;;;-143.98;100.00;68091.63;5055371;28;20048;-84
2021/04/06 08:12:03;;;;;;;22.10;2.55;;;;;;;-143.98;100.00;68091.63;5055988;28;20053;-84
2021/04/06 08:14:38;;;;;;;8.50;2.20;;;;;;;-143.98;100.00;68091.63;5052400;28;20428;-84
2021/04/06 08:17:29;;;;;;;6.88;1.88;;;;;;;-143.98;100.00;68091.63;5067789;28;20090;-84
2021/04/06 08:20:07;;;;;;;6.18;1.92;;;;;;;-143.98;100.00;68091.63;5058754;28;20335;-84
2021/04/06 08:22:37;;;;;;;13.50;2.08;;;;;;;-143.98;100.00;68091.63;5072320;28;20170;-82
2021/04/06 08:25:18;;;;;;;9.00;2.38;;;;;;;-143.98;100.00;68091.63;5070552;28;20052;-82
2021/04/06 08:27:46;;;;;;;6.35;1.75;;;;;;;-143.98;100.00;68091.63;5072369;28;20355;-82
2021/04/06 08:30:27;;;;;;;9.98;2.63;;;;;;;-143.98;100.00;68091.63;5069175;28;20040;-82
2021/04/06 08:33:00;;;;;;;7.25;1.92;;;;;;;-143.98;100.00;68091.63;5069573;28;20428;-85
2021/04/06 08:35:45;;;;;;;13.70;3.00;;;;;;;-143.98;100.00;68091.63;5075015;28;20076;-89
2021/04/06 08:38:24;;;;;;;9.67;2.47;;;;;;;-143.98;100.00;68091.63;5075796;28;20060;-84
2021/04/06 08:40:54;;;;;;;6.75;2.67;;;;;;;-143.98;100.00;68091.63;5073931;28;20049;-88
2021/04/06 08:43:46;;;;;;;6.88;2.75;;;;;;;-143.98;100.00;68091.63;5058769;28;20067;-86
2021/04/06 08:46:50;;;;;;;12.90;2.50;;;;;;;-143.98;100.00;68091.63;5059662;28;20133;-88
2021/04/06 08:49:36;;;;;;;10.02;2.90;;;;;;;-143.98;100.00;68091.63;5057177;28;20498;-87
2021/04/06 08:52:13;;;;;;;9.73;2.78;;;;;;;-143.98;100.00;68091.63;5051831;28;20067;-84
2021/04/06 08:54:45;;;;;;;14.63;3.10;;;;;;;-143.98;100.00;68091.63;5034455;28;20052;-85
2021/04/06 08:57:12;;;;;;;10.82;3.22;;;;;;;-143.98;100.00;68091.63;5054131;28;20049;-87
2021/04/06 08:59:42;;;;;;;11.70;3.30;;;;;;;-143.98;100.00;68091.63;5036814;28;20095;-86
2021/04/06 09:02:34;;;;;;;11.95;3.70;;;;;;;-143.98;100.00;68091.63;5036377;28;20252;-86
2021/04/06 09:05:11;;;;;;;10.07;3.05;;;;;;;-143.98;100.00;68091.63;5055444;28;20135;-87
2021/04/06 09:07:45;;;;;;;14.05;3.33;;;;;;;-143.98;100.00;68091.63;5056512;28;20071;-85
2021/04/06 09:10:15;;;;;;;9.85;2.90;;;;;;;-143.98;100.00;68091.63;5053806;28;20053;-85
2021/04/06 09:12:43;;;;;;;16.83;2.88;;;;;;;-143.98;100.00;68091.63;5052260;28;20445;-84
2021/04/06 09:15:25;;;;;;;11.02;2.45;;;;;;;-143.98;100.00;68091.63;5050911;28;20044;-84
2021/04/06 09:18:00;;;;;;;11.70;2.83;;;;;;;-143.98;100.00;68091.63;5062221;28;20565;-84
2021/04/06 09:20:34;;;;;;;6.72;2.47;;;;;;;-143.98;100.00;68091.63;5070242;28;20044;-84
2021/04/06 09:23:07;;;;;;;11.05;2.28;;;;;;;-143.98;100.00;68091.63;5080410;28;20037;-85
2021/04/06 09:25:33;;;;;;;11.02;2.95;;;;;;;-143.98;100.00;68091.63;5087089;28;20049;-86
2021/04/06 09:28:07;;;;;;;16.90;3.10;;;;;;;-143.98;100.00;68091.63;5088021;28;20063;-86
2021/04/06 09:30:48;;;;;;;16.30;2.92;;;;;;;-143.98;100.00;68091.63;5072701;28;20104;-87
2021/04/06 09:33:26;;;;;;;11.80;3.00;;;;;;;-143.98;100.00;68091.63;5070915;28;20055;-86
2021/04/06 09:35:54;;;;;;;10.80;3.08;;;;;;;-143.98;100.00;68091.63;5085431;28;20180;-85
2021/04/06 09:38:26;;;;;;;13.38;2.65;;;;;;;-143.98;100.00;68091.63;5078230;28;20074;-86
2021/04/06 09:40:57;;;;;;;10.63;2.28;;;;;;;-143.98;100.00;68091.63;5063180;28;20063;-87
2021/04/06 09:43:25;;;;;;;77.72;4.88;;;;;;;-143.98;100.00;68091.63;5076549;28;20177;-86
2021/04/06 09:45:58;;;;;;;6.15;2.10;;;;;;;-143.98;100.00;68091.63;5076805;28;20052;-86
2021/04/06 09:48:27;;;;;;;8.50;1.55;;;;;;;-143.98;100.00;68091.63;5074831;28;20041;-85
2021/04/06 09:51:00;;;;;;;170.90;7.63;;;;;;;-143.98;100.00;68091.63;5080988;28;20091;-88
2021/04/06 09:53:30;;;;;;;45.38;3.42;;;;;;;-143.98;100.00;68091.63;5082722;28;20037;-86
2021/04/06 09:55:57;;;;;;;11.10;1.60;;;;;;;-143.98;100.00;68091.63;5066990;28;20296;-85
2021/04/06 09:58:24;;;;;;;10.82;2.10;;;;;;;-143.98;100.00;68091.63;5054505;28;20053;-85
2021/04/06 10:00:50;;;;;;;4.88;1.40;;;;;;;-143.98;100.00;68091.63;5051405;28;20053;-84
2021/04/06 10:03:32;;;;;;;7.88;2.30;;;;;;;-143.98;100.00;68091.63;5049975;28;20329;-85
2021/04/06 10:06:08;;;;;;;12.18;2.03;;;;;;;-143.98;100.00;68091.63;5051212;28;20076;-85
2021/04/06 10:08:38;;;;;;;7.03;1.88;;;;;;;-143.98;100.00;68091.63;5048041;28;20304;-85
2021/04/06 10:11:24;;;;;;;3.95;1.90;;;;;;;-143.98;100.00;68091.63;5047157;28;20126;-84
2021/04/06 10:14:12;;;;;;;6.32;1.48;;;;;;;-143.98;100.00;68091.63;5042422;28;20048;-87
2021/04/06 10:16:40;;;;;;;8.63;1.88;;;;;;;-143.98;100.00;68091.63;5058307;28;20116;-85
2021/04/06 10:19:25;;;;;;;10.95;1.88;;;;;;;-143.98;100.00;68091.63;5087065;28;20090;-85
2021/04/06 10:22:15;;;;;;;5.70;1.10;;;;;;;-143.98;100.00;68091.63;5081474;28;20063;-85
2021/04/06 10:24:50;;;;;;;4.70;1.38;;;;;;;-143.98;100.00;68091.63;5055705;28;20436;-84
2021/04/06 10:27:25;;;;;;;4.80;1.52;;;;;;;-143.98;100.00;68091.63;5052980;28;20435;-83
2021/04/06 10:30:06;;;;;;;8.68;1.52;;;;;;;-143.98;100.00;68091.63;5059740;28;20100;-83
2021/04/06 10:32:41;;;;;;;9.90;1.73;;;;;;;-143.98;100.00;68091.63;5055258;28;20183;-84
2021/04/06 10:35:11;;;;;;;6.68;1.77;;;;;;;-143.98;100.00;68091.63;5051013;28;20087;-84
2021/04/06 10:37:55;;;;;;;5.05;1.60;;;;;;;-143.98;100.00;68091.63;5056945;28;20049;-84
2021/04/06 10:40:38;;;;;;;8.15;1.60;;;;;;;-143.98;100.00;68091.63;5064600;28;20064;-83
2021/04/06 10:43:33;;;;;;;12.32;2.20;;;;;;;-143.98;100.00;68091.63;5058055;28;20061;-83
2021/04/06 10:46:16;;;;;;;7.57;1.70;;;;;;;-143.98;100.00;68091.63;5048267;28;20106;-85
2021/04/06 10:48:47;;;;;;;5.82;1.45;;;;;;;-143.98;100.00;68091.63;5049357;28;20112;-84
2021/04/06 10:51:17;;;;;;;8.88;2.05;;;;;;;-143.98;100.00;68091.63;5054010;28;20051;-86
2021/04/06 10:53:47;;;;;;;7.40;1.13;;;;;;;-143.98;100.00;68091.63;5076096;28;20052;-87
2021/04/06 10:56:22;;;;;;;4.03;1.05;;;;;;;-143.98;100.00;68091.63;5075813;28;20052;-86
2021/04/06 10:58:57;;;;;;;3.92;1.20;;;;;;;-143.98;100.00;68091.63;5037980;28;20060;-88
2021/04/06 11:01:37;;;;;;;4.70;1.02;;;;;;;-143.98;100.00;68091.63;5091365;28;20052;-87
2021/04/06 11:04:14;;;;;;;6.63;1.80;;;;;;;-143.98;100.00;68091.63;5077405;28;20052;-87
2021/04/06 11:07:05;;;;;;;8.43;1.52;;;;;;;-143.98;100.00;68091.63;5058898;28;20060;-87
2021/04/06 11:09:46;;;;;;;8.00;1.70;;;;;;;-143.98;100.00;68091.63;5077607;28;20181;-86
2021/04/06 11:12:16;;;;;;;6.40;1.80;;;;;;;-143.98;100.00;68091.63;5076902;28;20079;-87
2021/04/06 11:15:42;;;;;;;5.13;1.60;;;;;;;-143.98;100.00;68091.63;5058621;28;20068;-86
2021/04/06 11:18:12;;;;;;;2.78;1.20;;;;;;;-143.98;100.00;68091.63;5077757;28;20111;-89
2021/04/06 11:20:39;;;;;;;13.40;1.58;;;;;;;-143.98;100.00;68091.63;5065318;28;20440;-86
2021/04/06 11:23:07;;;;;;;6.93;1.40;;;;;;;-143.98;100.00;68091.63;5059902;28;20049;-88
2021/04/06 11:25:33;;;;;;;7.63;1.58;;;;;;;-143.98;100.00;68091.63;5062099;28;20109;-88
2021/04/06 11:28:00;;;;;;;4.53;1.20;;;;;;;-143.98;100.00;68091.63;5079541;28;20059;-87
2021/04/06 11:30:32;;;;;;;4.38;0.82;;;;;;;-143.98;100.00;68091.63;5069476;28;20063;-88
2021/04/06 11:33:12;;;;;;;5.65;1.30;;;;;;;-143.98;100.00;68091.63;5067341;28;20096;-88
2021/04/06 11:35:39;;;;;;;4.18;1.38;;;;;;;-143.98;100.00;68091.63;5089816;28;20043;-88
2021/04/06 11:38:08;;;;;;;11.30;2.20;;;;;;;-143.98;100.00;68091.63;5078492;28;20157;-87
2021/04/06 11:40:35;;;;;;;6.40;1.67;;;;;;;-143.98;100.00;68091.63;5056982;28;20241;-88